CFG47T EDDN-EDLW
Flight info
| Callsign | CFG47T |
|---|---|
| Flight time | N/A |
| Altitude | 24000 |
| Route | SULUS1C SULUS L604 MASEK Z52 ARPEG Z850 ADEMI ADEMI2A |
| Aircraft | A320/M-SDE3FGHIRWY/LB1 |
Departure
| Time | 2026-05-01 12:20 |
|---|---|
| Airport | Nuremberg Airport (EDDN) |
Arrival
| Time | N/A |
|---|---|
| Airport | Dortmund Airport (EDLW) |
| Time | Latitude | Longitude | Altitude | Speed | Heading |
|---|---|---|---|---|---|
| 2026-05-01 12:07 | 49.49525 | 11.07659 | 1026 ft | 0 kts | 188° |
| 2026-05-01 12:13 | 49.49536 | 11.07662 | 1024 ft | 2 kts | 188° |
| 2026-05-01 12:13 | 49.49553 | 11.07666 | 1026 ft | 2 kts | 188° |
| 2026-05-01 12:13 | 49.49570 | 11.07671 | 1026 ft | 2 kts | 198° |
| 2026-05-01 12:13 | 49.49586 | 11.07681 | 1026 ft | 3 kts | 226° |
| 2026-05-01 12:14 | 49.49596 | 11.07704 | 1025 ft | 3 kts | 263° |
| 2026-05-01 12:14 | 49.49596 | 11.07709 | 1025 ft | 0 kts | 268° |
| 2026-05-01 12:14 | 49.49597 | 11.07657 | 1025 ft | 11 kts | 275° |
| 2026-05-01 12:15 | 49.49609 | 11.07537 | 1025 ft | 11 kts | 278° |
| 2026-05-01 12:15 | 49.49619 | 11.07426 | 1023 ft | 10 kts | 278° |
| 2026-05-01 12:15 | 49.49629 | 11.07329 | 1025 ft | 9 kts | 278° |
| 2026-05-01 12:15 | 49.49642 | 11.07246 | 1025 ft | 8 kts | 305° |
| 2026-05-01 12:16 | 49.49692 | 11.07232 | 1023 ft | 8 kts | 0° |
| 2026-05-01 12:16 | 49.49736 | 11.07188 | 1022 ft | 8 kts | 297° |
| 2026-05-01 12:16 | 49.49747 | 11.07100 | 1021 ft | 14 kts | 278° |
| 2026-05-01 12:16 | 49.49762 | 11.06936 | 1020 ft | 15 kts | 278° |
| 2026-05-01 12:17 | 49.49779 | 11.06777 | 1019 ft | 15 kts | 279° |
| 2026-05-01 12:17 | 49.49797 | 11.06589 | 1020 ft | 20 kts | 277° |
| 2026-05-01 12:17 | 49.49817 | 11.06383 | 1018 ft | 19 kts | 279° |
| 2026-05-01 12:17 | 49.49836 | 11.06187 | 1019 ft | 17 kts | 278° |
| 2026-05-01 12:18 | 49.49856 | 11.06025 | 1021 ft | 14 kts | 292° |
| 2026-05-01 12:18 | 49.49922 | 11.05956 | 1023 ft | 9 kts | 338° |
| 2026-05-01 12:18 | 49.49972 | 11.05931 | 1025 ft | 8 kts | 352° |
| 2026-05-01 12:18 | 49.50036 | 11.05976 | 1025 ft | 14 kts | 56° |
| 2026-05-01 12:19 | 49.50036 | 11.06136 | 1026 ft | 17 kts | 96° |
| 2026-05-01 12:19 | 49.50016 | 11.06337 | 1022 ft | 27 kts | 98° |
| 2026-05-01 12:19 | 49.49940 | 11.07078 | 1024 ft | 113 kts | 99° |
| 2026-05-01 12:19 | 49.49794 | 11.08619 | 1199 ft | 165 kts | 100° |
| 2026-05-01 12:20 | 49.49592 | 11.10456 | 2010 ft | 184 kts | 101° |
| 2026-05-01 12:20 | 49.49386 | 11.12500 | 2677 ft | 204 kts | 100° |
| 2026-05-01 12:20 | 49.49159 | 11.14811 | 3227 ft | 229 kts | 99° |
| 2026-05-01 12:20 | 49.49133 | 11.17332 | 3877 ft | 247 kts | 81° |
| 2026-05-01 12:21 | 49.49772 | 11.19836 | 4730 ft | 259 kts | 59° |
| 2026-05-01 12:21 | 49.51042 | 11.21869 | 5646 ft | 268 kts | 41° |
| 2026-05-01 12:21 | 49.52508 | 11.23664 | 6618 ft | 271 kts | 41° |
| 2026-05-01 12:21 | 49.53997 | 11.25479 | 7521 ft | 274 kts | 41° |
| 2026-05-01 12:22 | 49.55501 | 11.27311 | 8500 ft | 276 kts | 41° |
| 2026-05-01 12:22 | 49.57038 | 11.29072 | 9405 ft | 281 kts | 32° |
| 2026-05-01 12:22 | 49.58899 | 11.30130 | 10324 ft | 289 kts | 12° |
| 2026-05-01 12:22 | 49.60930 | 11.30119 | 11161 ft | 297 kts | 351° |
| 2026-05-01 12:23 | 49.62888 | 11.28986 | 11912 ft | 309 kts | 335° |
| 2026-05-01 12:23 | 49.64873 | 11.27361 | 12196 ft | 333 kts | 334° |
| 2026-05-01 12:23 | 49.66957 | 11.25603 | 12452 ft | 356 kts | 333° |
| 2026-05-01 12:23 | 49.69174 | 11.23707 | 13043 ft | 366 kts | 333° |
| 2026-05-01 12:24 | 49.71415 | 11.21784 | 13797 ft | 371 kts | 333° |
| 2026-05-01 12:24 | 49.73689 | 11.19830 | 14542 ft | 375 kts | 333° |
| 2026-05-01 12:24 | 49.75985 | 11.17867 | 15232 ft | 379 kts | 333° |
| 2026-05-01 12:24 | 49.78275 | 11.15919 | 15901 ft | 383 kts | 334° |
| 2026-05-01 12:25 | 49.80634 | 11.13922 | 16563 ft | 387 kts | 334° |
| 2026-05-01 12:25 | 49.85132 | 11.09203 | 17896 ft | 398 kts | 318° |
| 2026-05-01 12:25 | 49.87076 | 11.06115 | 18563 ft | 403 kts | 316° |
| 2026-05-01 12:26 | 49.89035 | 11.02952 | 19150 ft | 406 kts | 315° |
| 2026-05-01 12:26 | 49.92961 | 10.96581 | 20401 ft | 411 kts | 315° |
| 2026-05-01 12:26 | 49.94926 | 10.93390 | 21008 ft | 413 kts | 315° |
| 2026-05-01 12:27 | 49.96923 | 10.90144 | 21597 ft | 416 kts | 315° |
| 2026-05-01 12:27 | 50.00953 | 10.83598 | 22745 ft | 421 kts | 315° |
| 2026-05-01 12:28 | 50.04996 | 10.77015 | 23863 ft | 426 kts | 315° |
| 2026-05-01 12:28 | 50.07048 | 10.73665 | 24251 ft | 428 kts | 315° |
| 2026-05-01 12:28 | 50.11185 | 10.66909 | 24386 ft | 437 kts | 315° |
| 2026-05-01 12:29 | 50.13299 | 10.63449 | 24381 ft | 438 kts | 315° |
| 2026-05-01 12:29 | 50.15403 | 10.60002 | 24384 ft | 439 kts | 315° |
| 2026-05-01 12:29 | 50.19581 | 10.53122 | 24382 ft | 439 kts | 315° |
| 2026-05-01 12:30 | 50.23782 | 10.46198 | 24388 ft | 439 kts | 315° |
| 2026-05-01 12:30 | 50.25907 | 10.42759 | 24382 ft | 439 kts | 316° |
| 2026-05-01 12:30 | 50.28048 | 10.39327 | 24387 ft | 439 kts | 316° |
| 2026-05-01 12:31 | 50.30166 | 10.35940 | 24383 ft | 439 kts | 316° |
| 2026-05-01 12:31 | 50.32310 | 10.32506 | 24381 ft | 439 kts | 316° |
| 2026-05-01 12:31 | 50.34448 | 10.29072 | 24380 ft | 440 kts | 316° |
| 2026-05-01 12:31 | 50.36514 | 10.25612 | 24379 ft | 440 kts | 313° |
| 2026-05-01 12:32 | 50.38531 | 10.22003 | 24373 ft | 440 kts | 313° |
| 2026-05-01 12:32 | 50.42652 | 10.14912 | 24373 ft | 440 kts | 315° |
| 2026-05-01 12:32 | 50.44770 | 10.11433 | 24370 ft | 440 kts | 315° |
| 2026-05-01 12:33 | 50.46885 | 10.07933 | 24364 ft | 440 kts | 315° |
| 2026-05-01 12:33 | 50.48952 | 10.04459 | 24371 ft | 440 kts | 314° |
| 2026-05-01 12:33 | 50.51034 | 10.00912 | 24369 ft | 441 kts | 314° |
| 2026-05-01 12:33 | 50.53101 | 9.97360 | 24369 ft | 441 kts | 314° |
| 2026-05-01 12:34 | 50.55158 | 9.93775 | 24364 ft | 441 kts | 313° |
| 2026-05-01 12:34 | 50.57155 | 9.90115 | 24369 ft | 441 kts | 311° |
| 2026-05-01 12:34 | 50.58457 | 9.87649 | 24363 ft | 441 kts | 311° |
| 2026-05-01 12:34 | 50.60398 | 9.83901 | 24367 ft | 441 kts | 310° |
| 2026-05-01 12:35 | 50.62962 | 9.78903 | 24360 ft | 441 kts | 310° |
| 2026-05-01 12:35 | 50.64242 | 9.76416 | 24362 ft | 441 kts | 310° |
| 2026-05-01 12:35 | 50.66186 | 9.72662 | 24359 ft | 441 kts | 310° |
| 2026-05-01 12:35 | 50.68136 | 9.68928 | 24356 ft | 441 kts | 311° |
| 2026-05-01 12:36 | 50.70099 | 9.65170 | 24363 ft | 441 kts | 310° |
| 2026-05-01 12:36 | 50.71820 | 9.61200 | 24350 ft | 443 kts | 300° |
| 2026-05-01 12:36 | 50.73129 | 9.56797 | 24352 ft | 443 kts | 291° |
| 2026-05-01 12:36 | 50.73981 | 9.52106 | 24352 ft | 444 kts | 283° |
| 2026-05-01 12:37 | 50.74633 | 9.47336 | 24346 ft | 444 kts | 283° |
| 2026-05-01 12:37 | 50.75273 | 9.42620 | 24353 ft | 444 kts | 283° |
| 2026-05-01 12:37 | 50.75920 | 9.37839 | 24343 ft | 444 kts | 283° |
| 2026-05-01 12:37 | 50.76569 | 9.33046 | 24342 ft | 444 kts | 282° |
| 2026-05-01 12:38 | 50.77207 | 9.28323 | 24336 ft | 444 kts | 282° |
| 2026-05-01 12:38 | 50.77850 | 9.23551 | 24347 ft | 444 kts | 282° |
| 2026-05-01 12:38 | 50.78492 | 9.18776 | 24340 ft | 444 kts | 282° |
| 2026-05-01 12:38 | 50.79131 | 9.13999 | 24340 ft | 444 kts | 282° |
| 2026-05-01 12:39 | 50.79767 | 9.09213 | 24344 ft | 444 kts | 282° |
| 2026-05-01 12:39 | 50.80400 | 9.04424 | 24341 ft | 445 kts | 282° |
| 2026-05-01 12:39 | 50.81032 | 8.99623 | 24341 ft | 445 kts | 282° |
| 2026-05-01 12:39 | 50.81654 | 8.94883 | 24224 ft | 442 kts | 282° |
| 2026-05-01 12:40 | 50.82347 | 8.90166 | 23981 ft | 438 kts | 287° |
| 2026-05-01 12:40 | 50.83449 | 8.85677 | 23713 ft | 436 kts | 297° |
| 2026-05-01 12:40 | 50.84860 | 8.81432 | 23443 ft | 435 kts | 298° |
| 2026-05-01 12:40 | 50.86260 | 8.77257 | 23172 ft | 433 kts | 298° |
| 2026-05-01 12:41 | 50.87668 | 8.73042 | 22900 ft | 432 kts | 298° |
| 2026-05-01 12:41 | 50.89072 | 8.68830 | 22626 ft | 431 kts | 298° |
| 2026-05-01 12:41 | 50.90466 | 8.64636 | 22316 ft | 428 kts | 298° |
| 2026-05-01 12:41 | 50.91844 | 8.60475 | 21741 ft | 424 kts | 298° |
| 2026-05-01 12:42 | 50.93363 | 8.56441 | 20788 ft | 429 kts | 306° |
| 2026-05-01 12:42 | 50.95130 | 8.52626 | 19669 ft | 439 kts | 307° |
| 2026-05-01 12:42 | 50.96966 | 8.48700 | 18958 ft | 440 kts | 307° |
| 2026-05-01 12:42 | 50.98778 | 8.44831 | 18376 ft | 435 kts | 307° |
| 2026-05-01 12:43 | 51.00571 | 8.40995 | 17734 ft | 431 kts | 307° |
| 2026-05-01 12:43 | 51.02336 | 8.37206 | 17278 ft | 424 kts | 307° |
| 2026-05-01 12:43 | 51.04088 | 8.33435 | 16604 ft | 424 kts | 306° |
| 2026-05-01 12:43 | 51.05817 | 8.29699 | 16030 ft | 422 kts | 306° |
| 2026-05-01 12:44 | 51.07544 | 8.25951 | 15472 ft | 419 kts | 306° |
| 2026-05-01 12:44 | 51.09196 | 8.22360 | 14947 ft | 416 kts | 306° |
| 2026-05-01 12:44 | 51.12591 | 8.14967 | 13792 ft | 410 kts | 306° |
| 2026-05-01 12:45 | 51.15906 | 8.07734 | 12843 ft | 396 kts | 306° |
| 2026-05-01 12:45 | 51.17507 | 8.04239 | 12709 ft | 381 kts | 306° |
| 2026-05-01 12:45 | 51.19033 | 8.00905 | 12585 ft | 367 kts | 305° |
| 2026-05-01 12:46 | 51.20508 | 7.97684 | 12444 ft | 348 kts | 305° |
| 2026-05-01 12:46 | 51.21871 | 7.94704 | 12278 ft | 325 kts | 305° |
| 2026-05-01 12:46 | 51.23182 | 7.91825 | 11814 ft | 316 kts | 305° |
| 2026-05-01 12:46 | 51.24462 | 7.89009 | 11242 ft | 312 kts | 305° |
| 2026-05-01 12:47 | 51.25729 | 7.86219 | 10653 ft | 309 kts | 305° |
| 2026-05-01 12:47 | 51.26997 | 7.83422 | 10069 ft | 306 kts | 304° |
| 2026-05-01 12:47 | 51.28233 | 7.80692 | 9437 ft | 303 kts | 304° |
| 2026-05-01 12:47 | 51.29452 | 7.78001 | 8853 ft | 300 kts | 304° |
| 2026-05-01 12:48 | 51.30679 | 7.75292 | 8104 ft | 301 kts | 304° |
| 2026-05-01 12:48 | 51.31906 | 7.72581 | 7457 ft | 299 kts | 304° |
| 2026-05-01 12:48 | 51.33122 | 7.69894 | 6859 ft | 296 kts | 304° |
| 2026-05-01 12:48 | 51.34320 | 7.67245 | 6234 ft | 292 kts | 304° |
| 2026-05-01 12:49 | 51.35505 | 7.64625 | 5555 ft | 289 kts | 303° |
| 2026-05-01 12:49 | 51.36671 | 7.62042 | 4852 ft | 291 kts | 303° |
| 2026-05-01 12:49 | 51.37847 | 7.59426 | 4258 ft | 285 kts | 303° |
| 2026-05-01 12:49 | 51.38994 | 7.56872 | 3632 ft | 284 kts | 304° |
| 2026-05-01 12:50 | 51.40115 | 7.54371 | 3388 ft | 264 kts | 303° |
| 2026-05-01 12:50 | 51.41145 | 7.52073 | 3271 ft | 245 kts | 304° |
| 2026-05-01 12:50 | 51.42140 | 7.49898 | 3164 ft | 239 kts | 309° |
| 2026-05-01 12:50 | 51.43445 | 7.48305 | 3040 ft | 235 kts | 336° |
| 2026-05-01 12:51 | 51.44996 | 7.47805 | 3105 ft | 225 kts | 7° |
| 2026-05-01 12:51 | 51.46440 | 7.48460 | 3904 ft | 222 kts | 30° |
| 2026-05-01 12:51 | 51.48400 | 7.52187 | 4015 ft | 213 kts | 79° |
| 2026-05-01 12:52 | 51.48493 | 7.54393 | 3971 ft | 192 kts | 104° |
| 2026-05-01 12:52 | 51.46994 | 7.57582 | 3288 ft | 202 kts | 157° |
| 2026-05-01 12:52 | 51.45529 | 7.57918 | 4289 ft | 214 kts | 181° |
| 2026-05-01 12:53 | 51.41914 | 7.56341 | 4103 ft | 322 kts | 204° |
| 2026-05-01 12:53 | 51.39768 | 7.54579 | 3770 ft | 367 kts | 205° |
| 2026-05-01 12:53 | 51.37517 | 7.52720 | 4862 ft | 360 kts | 205° |
| 2026-05-01 12:54 | 51.35397 | 7.50898 | 6041 ft | 325 kts | 210° |
| 2026-05-01 12:54 | 51.32357 | 7.45610 | 7020 ft | 348 kts | 238° |
| 2026-05-01 12:54 | 51.31270 | 7.42008 | 6909 ft | 362 kts | 241° |
| 2026-05-01 12:55 | 51.29414 | 7.35139 | 6699 ft | 326 kts | 258° |
| 2026-05-01 12:55 | 51.29180 | 7.31568 | 6312 ft | 321 kts | 266° |
| 2026-05-01 12:55 | 51.29279 | 7.28035 | 6014 ft | 316 kts | 278° |
| 2026-05-01 12:56 | 51.30015 | 7.24812 | 5982 ft | 302 kts | 295° |
| 2026-05-01 12:56 | 51.31255 | 7.22212 | 5982 ft | 288 kts | 318° |
| 2026-05-01 12:56 | 51.32934 | 7.20682 | 5986 ft | 270 kts | 343° |
| 2026-05-01 12:56 | 51.34732 | 7.20302 | 5977 ft | 254 kts | 6° |
| 2026-05-01 12:57 | 51.36388 | 7.20913 | 5935 ft | 245 kts | 28° |
| 2026-05-01 12:57 | 51.38773 | 7.24401 | 5458 ft | 227 kts | 66° |
| 2026-05-01 12:57 | 51.39550 | 7.26584 | 5183 ft | 225 kts | 66° |
| 2026-05-01 12:58 | 51.40325 | 7.28753 | 4879 ft | 223 kts | 65° |
| 2026-05-01 12:58 | 51.41095 | 7.30909 | 4583 ft | 222 kts | 65° |
| 2026-05-01 12:58 | 51.41863 | 7.33067 | 4276 ft | 223 kts | 65° |
| 2026-05-01 12:59 | 51.43385 | 7.37342 | 3694 ft | 218 kts | 64° |
| 2026-05-01 12:59 | 51.44135 | 7.39455 | 3410 ft | 217 kts | 64° |
| 2026-05-01 12:59 | 51.45616 | 7.43630 | 2830 ft | 222 kts | 66° |
| 2026-05-01 13:00 | 51.47126 | 7.47884 | 2237 ft | 212 kts | 64° |
| 2026-05-01 13:00 | 51.47844 | 7.49915 | 1969 ft | 206 kts | 64° |
| 2026-05-01 13:01 | 51.49201 | 7.53796 | 1770 ft | 201 kts | 65° |
| 2026-05-01 13:01 | 51.49887 | 7.55731 | 2449 ft | 197 kts | 64° |
| 2026-05-01 13:01 | 51.51742 | 7.58914 | 3710 ft | 205 kts | 22° |
| 2026-05-01 13:02 | 51.53147 | 7.59285 | 4302 ft | 206 kts | 358° |